sensor_id;sensor_type;location;lat;lon;timestamp;P1;durP1;ratioP1;P2;durP2;ratioP2
3278;SDS011;1651;50.940;6.888;2023-07-02T00:01:43;4.83;;;3.40;;
3278;SDS011;1651;50.940;6.888;2023-07-02T00:04:09;3.00;;;2.70;;
3278;SDS011;1651;50.940;6.888;2023-07-02T00:06:39;6.10;;;3.20;;
3278;SDS011;1651;50.940;6.888;2023-07-02T00:09:09;8.37;;;3.10;;
3278;SDS011;1651;50.940;6.888;2023-07-02T00:11:37;6.80;;;3.07;;
3278;SDS011;1651;50.940;6.888;2023-07-02T00:14:03;4.13;;;2.97;;
3278;SDS011;1651;50.940;6.888;2023-07-02T00:16:29;6.37;;;3.53;;
3278;SDS011;1651;50.940;6.888;2023-07-02T00:18:55;8.03;;;3.40;;
3278;SDS011;1651;50.940;6.888;2023-07-02T00:21:22;4.20;;;2.80;;
3278;SDS011;1651;50.940;6.888;2023-07-02T00:23:56;5.60;;;3.50;;
3278;SDS011;1651;50.940;6.888;2023-07-02T00:26:22;4.57;;;2.97;;
3278;SDS011;1651;50.940;6.888;2023-07-02T00:28:49;4.67;;;3.30;;
3278;SDS011;1651;50.940;6.888;2023-07-02T00:31:15;6.80;;;3.40;;
3278;SDS011;1651;50.940;6.888;2023-07-02T00:33:41;7.37;;;3.57;;
3278;SDS011;1651;50.940;6.888;2023-07-02T00:36:09;5.53;;;3.37;;
3278;SDS011;1651;50.940;6.888;2023-07-02T00:38:40;8.27;;;3.70;;
3278;SDS011;1651;50.940;6.888;2023-07-02T00:41:07;4.10;;;2.87;;
3278;SDS011;1651;50.940;6.888;2023-07-02T00:43:33;5.30;;;3.30;;
3278;SDS011;1651;50.940;6.888;2023-07-02T00:46:05;6.00;;;3.23;;
3278;SDS011;1651;50.940;6.888;2023-07-02T00:48:34;6.50;;;3.37;;
3278;SDS011;1651;50.940;6.888;2023-07-02T00:51:00;5.10;;;3.70;;
3278;SDS011;1651;50.940;6.888;2023-07-02T00:53:28;7.50;;;3.83;;
3278;SDS011;1651;50.940;6.888;2023-07-02T00:55:54;4.43;;;3.10;;
3278;SDS011;1651;50.940;6.888;2023-07-02T00:58:21;5.40;;;3.10;;
3278;SDS011;1651;50.940;6.888;2023-07-02T01:00:47;5.30;;;2.50;;
3278;SDS011;1651;50.940;6.888;2023-07-02T01:05:55;6.10;;;3.60;;
3278;SDS011;1651;50.940;6.888;2023-07-02T01:08:21;5.07;;;3.23;;
3278;SDS011;1651;50.940;6.888;2023-07-02T01:10:47;5.30;;;4.00;;
3278;SDS011;1651;50.940;6.888;2023-07-02T01:13:14;8.73;;;4.43;;
3278;SDS011;1651;50.940;6.888;2023-07-02T01:15:42;10.67;;;4.90;;
3278;SDS011;1651;50.940;6.888;2023-07-02T01:18:10;8.17;;;4.30;;
3278;SDS011;1651;50.940;6.888;2023-07-02T01:20:38;7.27;;;4.37;;
3278;SDS011;1651;50.940;6.888;2023-07-02T01:23:04;6.80;;;4.80;;
3278;SDS011;1651;50.940;6.888;2023-07-02T01:25:31;9.63;;;5.00;;
3278;SDS011;1651;50.940;6.888;2023-07-02T01:28:01;5.20;;;4.20;;
3278;SDS011;1651;50.940;6.888;2023-07-02T01:30:27;7.57;;;5.27;;
3278;SDS011;1651;50.940;6.888;2023-07-02T01:32:53;11.70;;;5.87;;
3278;SDS011;1651;50.940;6.888;2023-07-02T01:35:19;9.23;;;6.53;;
3278;SDS011;1651;50.940;6.888;2023-07-02T01:37:46;7.70;;;5.07;;
3278;SDS011;1651;50.940;6.888;2023-07-02T01:40:13;7.37;;;5.20;;
3278;SDS011;1651;50.940;6.888;2023-07-02T01:42:40;12.67;;;6.27;;
3278;SDS011;1651;50.940;6.888;2023-07-02T01:45:09;10.63;;;6.60;;
3278;SDS011;1651;50.940;6.888;2023-07-02T01:47:35;8.93;;;6.23;;
3278;SDS011;1651;50.940;6.888;2023-07-02T01:50:03;10.10;;;6.60;;
3278;SDS011;1651;50.940;6.888;2023-07-02T01:52:29;11.20;;;6.03;;
3278;SDS011;1651;50.940;6.888;2023-07-02T01:55:05;12.13;;;6.80;;
3278;SDS011;1651;50.940;6.888;2023-07-02T01:57:31;11.30;;;7.83;;
3278;SDS011;1651;50.940;6.888;2023-07-02T01:59:57;14.43;;;6.80;;
3278;SDS011;1651;50.940;6.888;2023-07-02T02:02:23;15.60;;;7.57;;
3278;SDS011;1651;50.940;6.888;2023-07-02T02:04:49;12.40;;;8.50;;
3278;SDS011;1651;50.940;6.888;2023-07-02T02:07:15;11.57;;;7.20;;
3278;SDS011;1651;50.940;6.888;2023-07-02T02:09:41;20.33;;;8.67;;
3278;SDS011;1651;50.940;6.888;2023-07-02T02:12:08;12.23;;;6.90;;
3278;SDS011;1651;50.940;6.888;2023-07-02T02:14:33;12.47;;;7.10;;
3278;SDS011;1651;50.940;6.888;2023-07-02T02:16:59;14.97;;;7.20;;
3278;SDS011;1651;50.940;6.888;2023-07-02T02:19:29;19.40;;;7.67;;
3278;SDS011;1651;50.940;6.888;2023-07-02T02:21:55;13.10;;;8.97;;
3278;SDS011;1651;50.940;6.888;2023-07-02T02:24:20;14.80;;;8.03;;
3278;SDS011;1651;50.940;6.888;2023-07-02T02:26:46;14.63;;;8.00;;
3278;SDS011;1651;50.940;6.888;2023-07-02T02:29:12;17.47;;;7.67;;
3278;SDS011;1651;50.940;6.888;2023-07-02T02:31:38;15.47;;;9.40;;
3278;SDS011;1651;50.940;6.888;2023-07-02T02:34:04;14.80;;;8.50;;
3278;SDS011;1651;50.940;6.888;2023-07-02T02:36:30;12.83;;;7.93;;
3278;SDS011;1651;50.940;6.888;2023-07-02T02:38:57;18.67;;;8.50;;
3278;SDS011;1651;50.940;6.888;2023-07-02T02:41:23;17.93;;;8.23;;
3278;SDS011;1651;50.940;6.888;2023-07-02T02:43:50;13.63;;;8.43;;
3278;SDS011;1651;50.940;6.888;2023-07-02T02:46:20;20.93;;;8.63;;
3278;SDS011;1651;50.940;6.888;2023-07-02T02:48:49;20.57;;;9.83;;
3278;SDS011;1651;50.940;6.888;2023-07-02T02:51:15;18.43;;;8.47;;
3278;SDS011;1651;50.940;6.888;2023-07-02T02:53:41;14.77;;;10.30;;
3278;SDS011;1651;50.940;6.888;2023-07-02T02:56:09;17.30;;;10.50;;
3278;SDS011;1651;50.940;6.888;2023-07-02T02:58:36;21.17;;;10.20;;
3278;SDS011;1651;50.940;6.888;2023-07-02T03:01:02;13.80;;;9.10;;
3278;SDS011;1651;50.940;6.888;2023-07-02T03:03:35;14.53;;;8.73;;
3278;SDS011;1651;50.940;6.888;2023-07-02T03:06:04;13.37;;;9.13;;
3278;SDS011;1651;50.940;6.888;2023-07-02T03:08:30;14.07;;;8.60;;
3278;SDS011;1651;50.940;6.888;2023-07-02T03:10:56;21.07;;;10.50;;
3278;SDS011;1651;50.940;6.888;2023-07-02T03:13:23;13.30;;;8.70;;
3278;SDS011;1651;50.940;6.888;2023-07-02T03:15:49;14.93;;;8.70;;
3278;SDS011;1651;50.940;6.888;2023-07-02T03:18:15;24.30;;;9.97;;
3278;SDS011;1651;50.940;6.888;2023-07-02T03:20:41;17.43;;;9.67;;
3278;SDS011;1651;50.940;6.888;2023-07-02T03:23:07;18.10;;;9.00;;
3278;SDS011;1651;50.940;6.888;2023-07-02T03:25:33;17.90;;;9.87;;
3278;SDS011;1651;50.940;6.888;2023-07-02T03:27:59;22.47;;;9.60;;
3278;SDS011;1651;50.940;6.888;2023-07-02T03:30:25;19.30;;;10.47;;
3278;SDS011;1651;50.940;6.888;2023-07-02T03:32:51;14.77;;;9.67;;
3278;SDS011;1651;50.940;6.888;2023-07-02T03:35:17;20.30;;;9.90;;
3278;SDS011;1651;50.940;6.888;2023-07-02T03:37:43;15.93;;;10.20;;
3278;SDS011;1651;50.940;6.888;2023-07-02T03:40:11;20.00;;;11.73;;
3278;SDS011;1651;50.940;6.888;2023-07-02T03:42:37;20.80;;;10.30;;
3278;SDS011;1651;50.940;6.888;2023-07-02T03:45:03;25.37;;;11.13;;
3278;SDS011;1651;50.940;6.888;2023-07-02T03:47:29;18.80;;;10.10;;
3278;SDS011;1651;50.940;6.888;2023-07-02T03:49:54;18.83;;;10.73;;
3278;SDS011;1651;50.940;6.888;2023-07-02T03:52:20;17.53;;;9.63;;
3278;SDS011;1651;50.940;6.888;2023-07-02T03:54:46;21.77;;;11.57;;
3278;SDS011;1651;50.940;6.888;2023-07-02T03:57:12;22.13;;;11.43;;
3278;SDS011;1651;50.940;6.888;2023-07-02T03:59:38;18.20;;;10.70;;
3278;SDS011;1651;50.940;6.888;2023-07-02T04:02:04;18.63;;;10.70;;
3278;SDS011;1651;50.940;6.888;2023-07-02T04:04:30;18.60;;;11.90;;
3278;SDS011;1651;50.940;6.888;2023-07-02T04:06:56;23.23;;;11.17;;
3278;SDS011;1651;50.940;6.888;2023-07-02T04:09:22;17.57;;;11.57;;
3278;SDS011;1651;50.940;6.888;2023-07-02T04:11:48;23.67;;;12.30;;
3278;SDS011;1651;50.940;6.888;2023-07-02T04:14:14;26.73;;;11.57;;
3278;SDS011;1651;50.940;6.888;2023-07-02T04:16:41;22.03;;;11.37;;
3278;SDS011;1651;50.940;6.888;2023-07-02T04:19:06;23.70;;;11.13;;
3278;SDS011;1651;50.940;6.888;2023-07-02T04:21:34;23.30;;;11.97;;
3278;SDS011;1651;50.940;6.888;2023-07-02T04:24:00;25.30;;;11.30;;
3278;SDS011;1651;50.940;6.888;2023-07-02T04:26:27;20.23;;;11.07;;
3278;SDS011;1651;50.940;6.888;2023-07-02T04:28:54;23.00;;;12.00;;
3278;SDS011;1651;50.940;6.888;2023-07-02T04:31:20;17.73;;;11.83;;
3278;SDS011;1651;50.940;6.888;2023-07-02T04:33:46;27.13;;;12.30;;
3278;SDS011;1651;50.940;6.888;2023-07-02T04:36:12;22.47;;;12.27;;
3278;SDS011;1651;50.940;6.888;2023-07-02T04:38:39;19.73;;;12.20;;
3278;SDS011;1651;50.940;6.888;2023-07-02T04:41:05;25.33;;;13.27;;
3278;SDS011;1651;50.940;6.888;2023-07-02T04:43:31;23.70;;;11.90;;
3278;SDS011;1651;50.940;6.888;2023-07-02T04:45:58;25.43;;;13.57;;
3278;SDS011;1651;50.940;6.888;2023-07-02T04:48:24;21.90;;;11.50;;
3278;SDS011;1651;50.940;6.888;2023-07-02T04:50:50;27.77;;;12.70;;
3278;SDS011;1651;50.940;6.888;2023-07-02T04:53:16;22.83;;;13.10;;
3278;SDS011;1651;50.940;6.888;2023-07-02T04:55:42;23.77;;;13.67;;
3278;SDS011;1651;50.940;6.888;2023-07-02T04:58:08;25.63;;;14.03;;
3278;SDS011;1651;50.940;6.888;2023-07-02T05:00:34;22.87;;;14.67;;
3278;SDS011;1651;50.940;6.888;2023-07-02T05:03:00;29.00;;;14.40;;
3278;SDS011;1651;50.940;6.888;2023-07-02T05:05:26;29.43;;;13.90;;
3278;SDS011;1651;50.940;6.888;2023-07-02T05:07:54;24.10;;;13.93;;
3278;SDS011;1651;50.940;6.888;2023-07-02T05:10:20;34.33;;;15.53;;
3278;SDS011;1651;50.940;6.888;2023-07-02T05:12:46;26.70;;;15.43;;
3278;SDS011;1651;50.940;6.888;2023-07-02T05:15:12;22.63;;;13.57;;
3278;SDS011;1651;50.940;6.888;2023-07-02T05:17:38;25.07;;;14.73;;
3278;SDS011;1651;50.940;6.888;2023-07-02T05:20:04;31.93;;;15.10;;
3278;SDS011;1651;50.940;6.888;2023-07-02T05:22:30;24.63;;;14.00;;
3278;SDS011;1651;50.940;6.888;2023-07-02T05:24:56;27.60;;;16.30;;
3278;SDS011;1651;50.940;6.888;2023-07-02T05:27:22;24.80;;;14.60;;
3278;SDS011;1651;50.940;6.888;2023-07-02T05:29:48;26.63;;;15.17;;
3278;SDS011;1651;50.940;6.888;2023-07-02T05:32:14;23.83;;;14.50;;
3278;SDS011;1651;50.940;6.888;2023-07-02T05:34:41;30.30;;;15.47;;
3278;SDS011;1651;50.940;6.888;2023-07-02T05:37:07;24.00;;;13.90;;
3278;SDS011;1651;50.940;6.888;2023-07-02T05:39:33;23.57;;;15.33;;
3278;SDS011;1651;50.940;6.888;2023-07-02T05:41:59;24.13;;;15.33;;
3278;SDS011;1651;50.940;6.888;2023-07-02T05:44:25;26.97;;;13.90;;
3278;SDS011;1651;50.940;6.888;2023-07-02T05:46:51;23.53;;;15.93;;
3278;SDS011;1651;50.940;6.888;2023-07-02T05:49:17;29.67;;;16.57;;
3278;SDS011;1651;50.940;6.888;2023-07-02T05:51:43;23.43;;;15.63;;
3278;SDS011;1651;50.940;6.888;2023-07-02T05:54:09;30.77;;;15.10;;
3278;SDS011;1651;50.940;6.888;2023-07-02T05:56:35;26.20;;;16.80;;
3278;SDS011;1651;50.940;6.888;2023-07-02T05:59:01;26.67;;;14.60;;
3278;SDS011;1651;50.940;6.888;2023-07-02T06:01:27;24.87;;;14.07;;
3278;SDS011;1651;50.940;6.888;2023-07-02T06:03:55;28.73;;;14.43;;
3278;SDS011;1651;50.940;6.888;2023-07-02T06:06:22;28.60;;;15.70;;
3278;SDS011;1651;50.940;6.888;2023-07-02T06:08:49;27.80;;;15.17;;
3278;SDS011;1651;50.940;6.888;2023-07-02T06:11:16;24.03;;;15.27;;
3278;SDS011;1651;50.940;6.888;2023-07-02T06:13:42;24.97;;;15.87;;
3278;SDS011;1651;50.940;6.888;2023-07-02T06:16:08;21.83;;;14.57;;
3278;SDS011;1651;50.940;6.888;2023-07-02T06:18:35;24.67;;;14.50;;
3278;SDS011;1651;50.940;6.888;2023-07-02T06:21:03;28.30;;;15.70;;
3278;SDS011;1651;50.940;6.888;2023-07-02T06:23:30;27.20;;;15.00;;
3278;SDS011;1651;50.940;6.888;2023-07-02T06:26:05;28.13;;;15.17;;
3278;SDS011;1651;50.940;6.888;2023-07-02T06:28:31;22.20;;;13.90;;
3278;SDS011;1651;50.940;6.888;2023-07-02T06:30:57;25.30;;;13.83;;
3278;SDS011;1651;50.940;6.888;2023-07-02T06:33:24;27.37;;;14.57;;
3278;SDS011;1651;50.940;6.888;2023-07-02T06:35:50;28.47;;;14.70;;
3278;SDS011;1651;50.940;6.888;2023-07-02T06:38:16;27.43;;;14.50;;
3278;SDS011;1651;50.940;6.888;2023-07-02T06:40:44;26.60;;;13.57;;
3278;SDS011;1651;50.940;6.888;2023-07-02T06:43:11;26.23;;;15.27;;
3278;SDS011;1651;50.940;6.888;2023-07-02T06:45:39;25.67;;;14.13;;
3278;SDS011;1651;50.940;6.888;2023-07-02T06:48:05;23.20;;;14.20;;
3278;SDS011;1651;50.940;6.888;2023-07-02T06:50:31;25.17;;;14.30;;
3278;SDS011;1651;50.940;6.888;2023-07-02T06:52:57;24.60;;;15.43;;
3278;SDS011;1651;50.940;6.888;2023-07-02T06:55:23;27.23;;;15.97;;
3278;SDS011;1651;50.940;6.888;2023-07-02T06:57:49;30.60;;;16.57;;
3278;SDS011;1651;50.940;6.888;2023-07-02T07:00:15;22.43;;;13.47;;
3278;SDS011;1651;50.940;6.888;2023-07-02T07:02:41;28.33;;;15.23;;
3278;SDS011;1651;50.940;6.888;2023-07-02T07:05:07;28.37;;;14.93;;
3278;SDS011;1651;50.940;6.888;2023-07-02T07:07:34;24.70;;;14.90;;
3278;SDS011;1651;50.940;6.888;2023-07-02T07:10:01;29.80;;;15.17;;
3278;SDS011;1651;50.940;6.888;2023-07-02T07:17:34;19.60;;;13.23;;
3278;SDS011;1651;50.940;6.888;2023-07-02T07:20:00;24.57;;;13.60;;
3278;SDS011;1651;50.940;6.888;2023-07-02T07:22:29;22.20;;;13.43;;
3278;SDS011;1651;50.940;6.888;2023-07-02T07:24:55;23.03;;;11.70;;
3278;SDS011;1651;50.940;6.888;2023-07-02T07:27:21;22.20;;;13.97;;
3278;SDS011;1651;50.940;6.888;2023-07-02T07:29:48;23.30;;;13.23;;
3278;SDS011;1651;50.940;6.888;2023-07-02T07:32:14;21.37;;;14.30;;
3278;SDS011;1651;50.940;6.888;2023-07-02T07:34:42;26.87;;;13.63;;
3278;SDS011;1651;50.940;6.888;2023-07-02T07:37:08;20.53;;;13.50;;
3278;SDS011;1651;50.940;6.888;2023-07-02T07:39:35;22.00;;;12.63;;
3278;SDS011;1651;50.940;6.888;2023-07-02T07:42:00;22.33;;;12.30;;
3278;SDS011;1651;50.940;6.888;2023-07-02T07:44:26;20.80;;;11.73;;
3278;SDS011;1651;50.940;6.888;2023-07-02T07:46:55;20.30;;;12.50;;
3278;SDS011;1651;50.940;6.888;2023-07-02T07:49:21;20.07;;;11.40;;
3278;SDS011;1651;50.940;6.888;2023-07-02T07:51:47;18.47;;;12.37;;
3278;SDS011;1651;50.940;6.888;2023-07-02T07:54:14;23.50;;;12.47;;
3278;SDS011;1651;50.940;6.888;2023-07-02T07:56:40;19.57;;;12.17;;
3278;SDS011;1651;50.940;6.888;2023-07-02T07:59:06;17.90;;;11.37;;
3278;SDS011;1651;50.940;6.888;2023-07-02T08:01:32;17.60;;;11.90;;
3278;SDS011;1651;50.940;6.888;2023-07-02T08:03:58;19.67;;;12.97;;
3278;SDS011;1651;50.940;6.888;2023-07-02T08:06:24;20.27;;;12.10;;
3278;SDS011;1651;50.940;6.888;2023-07-02T08:08:49;18.30;;;12.50;;
3278;SDS011;1651;50.940;6.888;2023-07-02T08:11:15;21.53;;;12.00;;
3278;SDS011;1651;50.940;6.888;2023-07-02T08:13:42;17.00;;;11.10;;
3278;SDS011;1651;50.940;6.888;2023-07-02T08:16:08;22.43;;;12.77;;
3278;SDS011;1651;50.940;6.888;2023-07-02T08:18:35;18.97;;;11.93;;
3278;SDS011;1651;50.940;6.888;2023-07-02T08:21:01;15.53;;;11.70;;
3278;SDS011;1651;50.940;6.888;2023-07-02T08:23:27;20.70;;;11.63;;
3278;SDS011;1651;50.940;6.888;2023-07-02T08:25:56;16.47;;;10.73;;
3278;SDS011;1651;50.940;6.888;2023-07-02T09:40:57;18.10;;;11.20;;
3278;SDS011;1651;50.940;6.888;2023-07-02T09:57:14;19.30;;;12.60;;
3278;SDS011;1651;50.940;6.888;2023-07-02T15:12:26;16.60;;;9.57;;
3278;SDS011;1651;50.940;6.888;2023-07-02T15:14:52;18.17;;;10.60;;
3278;SDS011;1651;50.940;6.888;2023-07-02T15:17:20;17.07;;;10.23;;
3278;SDS011;1651;50.940;6.888;2023-07-02T15:19:46;19.00;;;9.73;;
3278;SDS011;1651;50.940;6.888;2023-07-02T15:24:42;18.77;;;9.53;;
3278;SDS011;1651;50.940;6.888;2023-07-02T15:27:08;17.10;;;10.20;;
3278;SDS011;1651;50.940;6.888;2023-07-02T15:29:37;19.83;;;10.50;;
3278;SDS011;1651;50.940;6.888;2023-07-02T15:32:03;19.20;;;10.23;;
3278;SDS011;1651;50.940;6.888;2023-07-02T15:34:29;16.00;;;9.50;;
3278;SDS011;1651;50.940;6.888;2023-07-02T15:36:55;13.30;;;9.90;;
3278;SDS011;1651;50.940;6.888;2023-07-02T15:39:21;15.83;;;9.23;;
3278;SDS011;1651;50.940;6.888;2023-07-02T15:41:52;18.13;;;11.03;;
3278;SDS011;1651;50.940;6.888;2023-07-02T15:44:18;15.43;;;9.67;;
3278;SDS011;1651;50.940;6.888;2023-07-02T15:46:44;17.57;;;9.83;;
3278;SDS011;1651;50.940;6.888;2023-07-02T15:49:11;16.47;;;10.10;;
3278;SDS011;1651;50.940;6.888;2023-07-02T15:51:39;15.93;;;9.90;;
3278;SDS011;1651;50.940;6.888;2023-07-02T15:54:11;14.70;;;9.83;;
3278;SDS011;1651;50.940;6.888;2023-07-02T15:56:38;19.43;;;9.53;;
3278;SDS011;1651;50.940;6.888;2023-07-02T15:59:04;16.40;;;10.30;;
3278;SDS011;1651;50.940;6.888;2023-07-02T16:01:34;18.47;;;10.70;;
3278;SDS011;1651;50.940;6.888;2023-07-02T16:04:03;15.97;;;8.77;;
3278;SDS011;1651;50.940;6.888;2023-07-02T16:06:33;15.73;;;10.27;;
3278;SDS011;1651;50.940;6.888;2023-07-02T16:09:00;20.93;;;10.50;;
3278;SDS011;1651;50.940;6.888;2023-07-02T16:11:26;17.03;;;10.63;;
3278;SDS011;1651;50.940;6.888;2023-07-02T16:13:55;20.33;;;10.50;;
3278;SDS011;1651;50.940;6.888;2023-07-02T16:16:22;18.67;;;10.13;;
3278;SDS011;1651;50.940;6.888;2023-07-02T16:18:48;17.33;;;9.10;;
3278;SDS011;1651;50.940;6.888;2023-07-02T16:21:14;15.40;;;9.90;;
3278;SDS011;1651;50.940;6.888;2023-07-02T16:23:40;18.33;;;10.30;;
3278;SDS011;1651;50.940;6.888;2023-07-02T16:26:09;18.73;;;10.27;;
3278;SDS011;1651;50.940;6.888;2023-07-02T16:28:36;14.53;;;9.10;;
3278;SDS011;1651;50.940;6.888;2023-07-02T16:31:02;18.90;;;10.37;;
3278;SDS011;1651;50.940;6.888;2023-07-02T16:33:29;17.47;;;10.30;;
3278;SDS011;1651;50.940;6.888;2023-07-02T16:35:58;22.03;;;10.40;;
3278;SDS011;1651;50.940;6.888;2023-07-02T16:38:24;17.90;;;9.80;;
3278;SDS011;1651;50.940;6.888;2023-07-02T16:40:50;18.90;;;11.63;;
3278;SDS011;1651;50.940;6.888;2023-07-02T16:43:16;25.10;;;15.67;;
3278;SDS011;1651;50.940;6.888;2023-07-02T16:45:42;20.07;;;12.50;;
3278;SDS011;1651;50.940;6.888;2023-07-02T16:48:08;20.83;;;13.10;;
3278;SDS011;1651;50.940;6.888;2023-07-02T16:50:34;19.33;;;10.20;;
3278;SDS011;1651;50.940;6.888;2023-07-02T16:53:00;18.73;;;9.60;;
3278;SDS011;1651;50.940;6.888;2023-07-02T16:55:26;17.63;;;10.90;;
3278;SDS011;1651;50.940;6.888;2023-07-02T16:57:54;25.27;;;10.93;;
3278;SDS011;1651;50.940;6.888;2023-07-02T17:00:20;17.17;;;10.80;;
3278;SDS011;1651;50.940;6.888;2023-07-02T17:02:46;15.90;;;10.57;;
3278;SDS011;1651;50.940;6.888;2023-07-02T17:05:12;19.87;;;10.80;;
3278;SDS011;1651;50.940;6.888;2023-07-02T17:07:38;17.10;;;10.27;;
3278;SDS011;1651;50.940;6.888;2023-07-02T17:10:05;20.90;;;10.70;;
3278;SDS011;1651;50.940;6.888;2023-07-02T17:12:31;15.73;;;8.37;;
3278;SDS011;1651;50.940;6.888;2023-07-02T17:14:57;16.17;;;9.70;;
3278;SDS011;1651;50.940;6.888;2023-07-02T17:17:24;20.57;;;9.57;;
3278;SDS011;1651;50.940;6.888;2023-07-02T17:19:57;16.93;;;9.93;;
3278;SDS011;1651;50.940;6.888;2023-07-02T17:22:27;19.20;;;10.50;;
3278;SDS011;1651;50.940;6.888;2023-07-02T17:24:54;16.33;;;9.80;;
3278;SDS011;1651;50.940;6.888;2023-07-02T17:27:22;19.17;;;9.33;;
3278;SDS011;1651;50.940;6.888;2023-07-02T17:29:52;17.33;;;9.93;;
3278;SDS011;1651;50.940;6.888;2023-07-02T17:32:22;19.73;;;10.10;;
3278;SDS011;1651;50.940;6.888;2023-07-02T17:34:49;17.53;;;9.10;;
3278;SDS011;1651;50.940;6.888;2023-07-02T17:37:15;15.70;;;10.07;;
3278;SDS011;1651;50.940;6.888;2023-07-02T17:39:42;17.30;;;9.47;;
3278;SDS011;1651;50.940;6.888;2023-07-02T17:42:10;21.70;;;10.37;;
3278;SDS011;1651;50.940;6.888;2023-07-02T17:44:38;15.27;;;9.17;;
3278;SDS011;1651;50.940;6.888;2023-07-02T17:47:06;20.03;;;9.50;;
3278;SDS011;1651;50.940;6.888;2023-07-02T17:49:37;20.63;;;11.00;;
3278;SDS011;1651;50.940;6.888;2023-07-02T17:52:04;20.00;;;9.87;;
3278;SDS011;1651;50.940;6.888;2023-07-02T17:54:36;17.00;;;9.53;;
3278;SDS011;1651;50.940;6.888;2023-07-02T17:57:02;14.57;;;9.23;;
3278;SDS011;1651;50.940;6.888;2023-07-02T17:59:29;20.10;;;8.60;;
3278;SDS011;1651;50.940;6.888;2023-07-02T18:01:56;18.30;;;10.27;;
3278;SDS011;1651;50.940;6.888;2023-07-02T18:04:22;17.13;;;10.03;;
3278;SDS011;1651;50.940;6.888;2023-07-02T18:06:51;18.43;;;9.40;;
3278;SDS011;1651;50.940;6.888;2023-07-02T18:09:22;15.77;;;8.63;;
3278;SDS011;1651;50.940;6.888;2023-07-02T18:11:48;20.93;;;8.50;;
3278;SDS011;1651;50.940;6.888;2023-07-02T18:14:16;17.93;;;8.70;;
3278;SDS011;1651;50.940;6.888;2023-07-02T18:16:44;17.70;;;9.57;;
3278;SDS011;1651;50.940;6.888;2023-07-02T18:19:10;15.63;;;9.13;;
3278;SDS011;1651;50.940;6.888;2023-07-02T18:21:38;19.87;;;9.07;;
3278;SDS011;1651;50.940;6.888;2023-07-02T18:24:07;12.60;;;8.03;;
3278;SDS011;1651;50.940;6.888;2023-07-02T18:26:34;17.63;;;8.00;;
3278;SDS011;1651;50.940;6.888;2023-07-02T18:29:02;19.47;;;9.33;;
3278;SDS011;1651;50.940;6.888;2023-07-02T18:31:28;17.90;;;9.33;;
3278;SDS011;1651;50.940;6.888;2023-07-02T18:33:55;17.07;;;8.77;;
3278;SDS011;1651;50.940;6.888;2023-07-02T18:36:22;17.57;;;9.00;;
3278;SDS011;1651;50.940;6.888;2023-07-02T18:38:48;20.43;;;9.27;;
3278;SDS011;1651;50.940;6.888;2023-07-02T18:41:15;21.00;;;8.23;;
3278;SDS011;1651;50.940;6.888;2023-07-02T18:43:41;16.10;;;8.50;;
3278;SDS011;1651;50.940;6.888;2023-07-02T18:46:09;16.13;;;8.60;;
3278;SDS011;1651;50.940;6.888;2023-07-02T18:51:07;15.97;;;9.40;;
3278;SDS011;1651;50.940;6.888;2023-07-02T18:53:33;14.90;;;8.03;;
3278;SDS011;1651;50.940;6.888;2023-07-02T18:56:02;16.10;;;7.77;;
3278;SDS011;1651;50.940;6.888;2023-07-02T18:58:33;20.70;;;10.40;;
3278;SDS011;1651;50.940;6.888;2023-07-02T19:01:09;18.33;;;8.40;;
3278;SDS011;1651;50.940;6.888;2023-07-02T19:03:37;18.50;;;8.03;;
3278;SDS011;1651;50.940;6.888;2023-07-02T19:06:07;16.83;;;8.57;;
3278;SDS011;1651;50.940;6.888;2023-07-02T19:08:40;16.47;;;7.00;;
3278;SDS011;1651;50.940;6.888;2023-07-02T19:11:06;14.93;;;8.00;;
3278;SDS011;1651;50.940;6.888;2023-07-02T19:13:33;17.53;;;8.03;;
3278;SDS011;1651;50.940;6.888;2023-07-02T19:15:59;16.20;;;9.10;;
3278;SDS011;1651;50.940;6.888;2023-07-02T19:18:25;15.53;;;8.70;;
3278;SDS011;1651;50.940;6.888;2023-07-02T19:20:52;24.70;;;9.90;;
3278;SDS011;1651;50.940;6.888;2023-07-02T19:23:18;27.93;;;9.00;;
3278;SDS011;1651;50.940;6.888;2023-07-02T19:25:44;22.40;;;8.77;;
3278;SDS011;1651;50.940;6.888;2023-07-02T19:28:11;18.77;;;8.53;;
3278;SDS011;1651;50.940;6.888;2023-07-02T19:30:37;12.27;;;8.07;;
3278;SDS011;1651;50.940;6.888;2023-07-02T19:33:03;11.47;;;7.13;;
3278;SDS011;1651;50.940;6.888;2023-07-02T19:35:29;14.63;;;8.87;;
3278;SDS011;1651;50.940;6.888;2023-07-02T19:37:56;17.07;;;8.60;;
3278;SDS011;1651;50.940;6.888;2023-07-02T19:40:22;13.43;;;7.40;;
3278;SDS011;1651;50.940;6.888;2023-07-02T19:42:57;19.33;;;8.63;;
3278;SDS011;1651;50.940;6.888;2023-07-02T19:45:23;12.33;;;7.87;;
3278;SDS011;1651;50.940;6.888;2023-07-02T19:47:50;14.30;;;8.03;;
3278;SDS011;1651;50.940;6.888;2023-07-02T19:50:17;20.17;;;8.63;;
3278;SDS011;1651;50.940;6.888;2023-07-02T19:52:44;19.90;;;9.40;;
3278;SDS011;1651;50.940;6.888;2023-07-02T19:55:10;17.00;;;7.73;;
3278;SDS011;1651;50.940;6.888;2023-07-02T19:57:38;12.97;;;7.93;;
3278;SDS011;1651;50.940;6.888;2023-07-02T20:00:14;12.67;;;8.57;;
3278;SDS011;1651;50.940;6.888;2023-07-02T20:02:40;19.50;;;8.57;;
3278;SDS011;1651;50.940;6.888;2023-07-02T20:05:07;20.77;;;8.30;;
3278;SDS011;1651;50.940;6.888;2023-07-02T20:07:34;19.13;;;9.00;;
3278;SDS011;1651;50.940;6.888;2023-07-02T20:10:00;21.43;;;8.50;;
3278;SDS011;1651;50.940;6.888;2023-07-02T20:12:26;19.90;;;7.67;;
3278;SDS011;1651;50.940;6.888;2023-07-02T20:14:55;20.53;;;9.43;;
3278;SDS011;1651;50.940;6.888;2023-07-02T20:17:21;16.23;;;7.67;;
3278;SDS011;1651;50.940;6.888;2023-07-02T20:19:48;16.23;;;7.90;;
3278;SDS011;1651;50.940;6.888;2023-07-02T20:22:16;15.33;;;7.10;;
3278;SDS011;1651;50.940;6.888;2023-07-02T20:24:42;14.23;;;8.60;;
3278;SDS011;1651;50.940;6.888;2023-07-02T20:27:10;14.63;;;8.27;;
3278;SDS011;1651;50.940;6.888;2023-07-02T20:29:37;13.00;;;7.20;;
3278;SDS011;1651;50.940;6.888;2023-07-02T20:32:03;15.17;;;7.00;;
3278;SDS011;1651;50.940;6.888;2023-07-02T20:34:33;17.50;;;8.20;;
3278;SDS011;1651;50.940;6.888;2023-07-02T20:36:59;17.87;;;8.20;;
3278;SDS011;1651;50.940;6.888;2023-07-02T20:39:26;13.53;;;7.50;;
3278;SDS011;1651;50.940;6.888;2023-07-02T20:41:52;13.10;;;5.93;;
3278;SDS011;1651;50.940;6.888;2023-07-02T20:44:19;16.37;;;7.27;;
3278;SDS011;1651;50.940;6.888;2023-07-02T20:46:48;15.67;;;7.40;;
3278;SDS011;1651;50.940;6.888;2023-07-02T20:49:19;16.70;;;7.50;;
3278;SDS011;1651;50.940;6.888;2023-07-02T20:51:46;14.67;;;7.40;;
3278;SDS011;1651;50.940;6.888;2023-07-02T20:54:19;16.93;;;6.50;;
3278;SDS011;1651;50.940;6.888;2023-07-02T20:56:50;13.83;;;7.63;;
3278;SDS011;1651;50.940;6.888;2023-07-02T20:59:18;14.23;;;6.93;;
3278;SDS011;1651;50.940;6.888;2023-07-02T21:01:44;15.03;;;6.67;;
3278;SDS011;1651;50.940;6.888;2023-07-02T21:04:10;16.37;;;7.03;;
3278;SDS011;1651;50.940;6.888;2023-07-02T21:06:38;12.57;;;6.63;;
3278;SDS011;1651;50.940;6.888;2023-07-02T21:09:08;17.33;;;7.90;;
3278;SDS011;1651;50.940;6.888;2023-07-02T21:11:35;12.67;;;6.47;;
3278;SDS011;1651;50.940;6.888;2023-07-02T21:14:02;14.07;;;7.03;;
3278;SDS011;1651;50.940;6.888;2023-07-02T21:16:29;13.40;;;6.80;;
3278;SDS011;1651;50.940;6.888;2023-07-02T21:18:57;15.93;;;5.90;;
3278;SDS011;1651;50.940;6.888;2023-07-02T21:21:39;14.70;;;6.57;;
3278;SDS011;1651;50.940;6.888;2023-07-02T21:24:09;22.03;;;7.07;;
3278;SDS011;1651;50.940;6.888;2023-07-02T21:26:48;10.23;;;5.07;;
3278;SDS011;1651;50.940;6.888;2023-07-02T21:32:33;13.00;;;6.07;;
3278;SDS011;1651;50.940;6.888;2023-07-02T21:35:06;11.97;;;5.73;;
3278;SDS011;1651;50.940;6.888;2023-07-02T21:38:02;13.07;;;4.90;;
3278;SDS011;1651;50.940;6.888;2023-07-02T21:40:44;8.37;;;4.30;;
3278;SDS011;1651;50.940;6.888;2023-07-02T21:49:13;8.87;;;3.77;;
3278;SDS011;1651;50.940;6.888;2023-07-02T22:10:00;9.97;;;3.87;;
3278;SDS011;1651;50.940;6.888;2023-07-02T22:12:42;8.70;;;3.67;;
3278;SDS011;1651;50.940;6.888;2023-07-02T22:15:30;8.50;;;3.20;;
3278;SDS011;1651;50.940;6.888;2023-07-02T22:17:57;7.47;;;2.77;;